sensor_id;sensor_type;location;lat;lon;timestamp;temperature;humidity
19248;DHT22;9758;48.640;8.148;2023-08-17T00:01:02;24.30;51.10
19248;DHT22;9758;48.640;8.148;2023-08-17T00:03:29;24.30;51.10
19248;DHT22;9758;48.640;8.148;2023-08-17T00:05:56;24.30;51.10
19248;DHT22;9758;48.640;8.148;2023-08-17T00:08:24;24.30;51.20
19248;DHT22;9758;48.640;8.148;2023-08-17T00:10:51;24.30;51.20
19248;DHT22;9758;48.640;8.148;2023-08-17T00:13:18;24.20;51.20
19248;DHT22;9758;48.640;8.148;2023-08-17T00:15:45;24.20;51.30
19248;DHT22;9758;48.640;8.148;2023-08-17T00:18:11;24.20;51.20
19248;DHT22;9758;48.640;8.148;2023-08-17T00:20:38;24.10;51.30
19248;DHT22;9758;48.640;8.148;2023-08-17T00:23:05;24.10;51.30
19248;DHT22;9758;48.640;8.148;2023-08-17T00:25:33;24.10;51.30
19248;DHT22;9758;48.640;8.148;2023-08-17T00:28:00;24.10;51.40
19248;DHT22;9758;48.640;8.148;2023-08-17T00:30:27;24.00;51.30
19248;DHT22;9758;48.640;8.148;2023-08-17T00:32:54;24.00;51.40
19248;DHT22;9758;48.640;8.148;2023-08-17T00:35:20;23.90;51.30
19248;DHT22;9758;48.640;8.148;2023-08-17T00:37:47;23.90;51.40
19248;DHT22;9758;48.640;8.148;2023-08-17T00:40:14;23.90;51.50
19248;DHT22;9758;48.640;8.148;2023-08-17T00:42:42;23.90;51.50
19248;DHT22;9758;48.640;8.148;2023-08-17T00:45:09;23.80;51.50
19248;DHT22;9758;48.640;8.148;2023-08-17T00:47:36;23.80;51.50
19248;DHT22;9758;48.640;8.148;2023-08-17T00:50:04;23.80;51.60
19248;DHT22;9758;48.640;8.148;2023-08-17T00:52:32;23.70;51.60
19248;DHT22;9758;48.640;8.148;2023-08-17T00:55:00;23.70;51.60
19248;DHT22;9758;48.640;8.148;2023-08-17T00:57:30;23.70;51.60
19248;DHT22;9758;48.640;8.148;2023-08-17T00:59:59;23.70;51.70
19248;DHT22;9758;48.640;8.148;2023-08-17T01:02:26;23.70;51.70
19248;DHT22;9758;48.640;8.148;2023-08-17T01:04:53;23.60;51.70
19248;DHT22;9758;48.640;8.148;2023-08-17T01:07:21;23.60;51.70
19248;DHT22;9758;48.640;8.148;2023-08-17T01:09:48;23.60;51.70
19248;DHT22;9758;48.640;8.148;2023-08-17T01:12:19;23.60;52.10
19248;DHT22;9758;48.640;8.148;2023-08-17T01:14:55;23.50;51.80
19248;DHT22;9758;48.640;8.148;2023-08-17T01:17:28;23.50;51.80
19248;DHT22;9758;48.640;8.148;2023-08-17T01:19:56;23.50;51.90
19248;DHT22;9758;48.640;8.148;2023-08-17T01:22:24;23.50;51.90
19248;DHT22;9758;48.640;8.148;2023-08-17T01:24:56;23.50;51.90
19248;DHT22;9758;48.640;8.148;2023-08-17T01:27:24;23.50;52.00
19248;DHT22;9758;48.640;8.148;2023-08-17T01:29:51;23.40;52.00
19248;DHT22;9758;48.640;8.148;2023-08-17T01:32:26;23.40;52.00
19248;DHT22;9758;48.640;8.148;2023-08-17T01:35:01;23.40;52.00
19248;DHT22;9758;48.640;8.148;2023-08-17T01:37:31;23.40;52.10
19248;DHT22;9758;48.640;8.148;2023-08-17T01:40:01;23.30;52.00
19248;DHT22;9758;48.640;8.148;2023-08-17T01:42:30;23.30;52.00
19248;DHT22;9758;48.640;8.148;2023-08-17T01:44:57;23.30;52.10
19248;DHT22;9758;48.640;8.148;2023-08-17T01:47:25;23.30;52.10
19248;DHT22;9758;48.640;8.148;2023-08-17T01:49:52;23.20;52.10
19248;DHT22;9758;48.640;8.148;2023-08-17T01:52:18;23.20;52.10
19248;DHT22;9758;48.640;8.148;2023-08-17T01:54:45;23.20;52.20
19248;DHT22;9758;48.640;8.148;2023-08-17T01:57:13;23.20;52.20
19248;DHT22;9758;48.640;8.148;2023-08-17T01:59:40;23.20;52.20
19248;DHT22;9758;48.640;8.148;2023-08-17T02:02:06;23.10;52.20
19248;DHT22;9758;48.640;8.148;2023-08-17T02:04:34;23.10;52.20
19248;DHT22;9758;48.640;8.148;2023-08-17T02:07:01;23.10;52.30
19248;DHT22;9758;48.640;8.148;2023-08-17T02:09:28;23.10;52.30
19248;DHT22;9758;48.640;8.148;2023-08-17T02:11:54;23.10;52.30
19248;DHT22;9758;48.640;8.148;2023-08-17T02:14:23;23.10;53.00
19248;DHT22;9758;48.640;8.148;2023-08-17T02:16:49;23.10;52.40
19248;DHT22;9758;48.640;8.148;2023-08-17T02:19:16;23.00;52.40
19248;DHT22;9758;48.640;8.148;2023-08-17T02:21:43;23.00;52.40
19248;DHT22;9758;48.640;8.148;2023-08-17T02:24:10;23.00;52.40
19248;DHT22;9758;48.640;8.148;2023-08-17T02:26:37;23.00;52.40
19248;DHT22;9758;48.640;8.148;2023-08-17T02:29:05;23.00;52.50
19248;DHT22;9758;48.640;8.148;2023-08-17T02:31:33;23.00;52.50
19248;DHT22;9758;48.640;8.148;2023-08-17T02:34:00;22.90;52.50
19248;DHT22;9758;48.640;8.148;2023-08-17T02:36:30;22.90;52.50
19248;DHT22;9758;48.640;8.148;2023-08-17T02:38:57;22.90;52.60
19248;DHT22;9758;48.640;8.148;2023-08-17T02:41:24;22.90;52.50
19248;DHT22;9758;48.640;8.148;2023-08-17T02:43:51;22.80;52.50
19248;DHT22;9758;48.640;8.148;2023-08-17T02:46:18;22.80;52.50
19248;DHT22;9758;48.640;8.148;2023-08-17T02:48:46;22.80;52.60
19248;DHT22;9758;48.640;8.148;2023-08-17T02:51:13;22.80;52.60
19248;DHT22;9758;48.640;8.148;2023-08-17T02:53:40;22.80;52.60
19248;DHT22;9758;48.640;8.148;2023-08-17T02:56:07;22.80;52.70
19248;DHT22;9758;48.640;8.148;2023-08-17T02:58:37;22.80;52.60
19248;DHT22;9758;48.640;8.148;2023-08-17T03:01:05;22.70;52.60
19248;DHT22;9758;48.640;8.148;2023-08-17T03:03:32;22.70;52.70
19248;DHT22;9758;48.640;8.148;2023-08-17T03:06:00;22.70;52.70
19248;DHT22;9758;48.640;8.148;2023-08-17T03:08:30;22.70;52.70
19248;DHT22;9758;48.640;8.148;2023-08-17T03:10:57;22.70;52.80
19248;DHT22;9758;48.640;8.148;2023-08-17T03:13:24;22.70;52.80
19248;DHT22;9758;48.640;8.148;2023-08-17T03:15:50;22.70;52.80
19248;DHT22;9758;48.640;8.148;2023-08-17T03:18:17;22.60;52.80
19248;DHT22;9758;48.640;8.148;2023-08-17T03:20:44;22.60;52.80
19248;DHT22;9758;48.640;8.148;2023-08-17T03:23:12;22.60;52.80
19248;DHT22;9758;48.640;8.148;2023-08-17T03:25:39;22.60;52.80
19248;DHT22;9758;48.640;8.148;2023-08-17T03:28:06;22.60;52.90
19248;DHT22;9758;48.640;8.148;2023-08-17T03:30:33;22.60;52.90
19248;DHT22;9758;48.640;8.148;2023-08-17T03:33:00;22.50;52.90
19248;DHT22;9758;48.640;8.148;2023-08-17T03:35:26;22.50;52.90
19248;DHT22;9758;48.640;8.148;2023-08-17T03:37:53;22.50;52.90
19248;DHT22;9758;48.640;8.148;2023-08-17T03:40:21;22.50;53.00
19248;DHT22;9758;48.640;8.148;2023-08-17T03:42:48;22.50;53.00
19248;DHT22;9758;48.640;8.148;2023-08-17T03:45:15;22.50;53.10
19248;DHT22;9758;48.640;8.148;2023-08-17T03:47:42;22.50;53.10
19248;DHT22;9758;48.640;8.148;2023-08-17T03:50:09;22.50;53.10
19248;DHT22;9758;48.640;8.148;2023-08-17T03:52:36;22.50;53.20
19248;DHT22;9758;48.640;8.148;2023-08-17T03:55:03;22.50;53.20
19248;DHT22;9758;48.640;8.148;2023-08-17T03:57:33;22.50;53.20
19248;DHT22;9758;48.640;8.148;2023-08-17T04:00:00;22.60;53.30
19248;DHT22;9758;48.640;8.148;2023-08-17T04:02:27;22.60;53.20
19248;DHT22;9758;48.640;8.148;2023-08-17T04:04:53;22.60;53.30
19248;DHT22;9758;48.640;8.148;2023-08-17T04:07:21;22.60;53.20
19248;DHT22;9758;48.640;8.148;2023-08-17T04:09:48;22.60;53.20
19248;DHT22;9758;48.640;8.148;2023-08-17T04:12:15;22.60;53.20
19248;DHT22;9758;48.640;8.148;2023-08-17T04:14:43;22.70;53.30
19248;DHT22;9758;48.640;8.148;2023-08-17T04:17:10;22.60;53.20
19248;DHT22;9758;48.640;8.148;2023-08-17T04:19:36;22.70;53.30
19248;DHT22;9758;48.640;8.148;2023-08-17T04:22:03;22.70;53.30
19248;DHT22;9758;48.640;8.148;2023-08-17T04:24:30;22.70;53.30
19248;DHT22;9758;48.640;8.148;2023-08-17T04:26:57;22.70;53.30
19248;DHT22;9758;48.640;8.148;2023-08-17T04:29:23;22.80;53.30
19248;DHT22;9758;48.640;8.148;2023-08-17T04:31:51;22.80;53.90
19248;DHT22;9758;48.640;8.148;2023-08-17T04:34:18;22.80;53.30
19248;DHT22;9758;48.640;8.148;2023-08-17T04:36:45;22.80;53.30
19248;DHT22;9758;48.640;8.148;2023-08-17T04:39:12;22.80;53.30
19248;DHT22;9758;48.640;8.148;2023-08-17T04:41:39;22.90;53.40
19248;DHT22;9758;48.640;8.148;2023-08-17T04:44:05;22.90;53.40
19248;DHT22;9758;48.640;8.148;2023-08-17T04:46:32;22.90;53.40
19248;DHT22;9758;48.640;8.148;2023-08-17T04:49:00;22.90;53.40
19248;DHT22;9758;48.640;8.148;2023-08-17T04:51:27;23.00;53.40
19248;DHT22;9758;48.640;8.148;2023-08-17T04:53:54;23.00;53.40
19248;DHT22;9758;48.640;8.148;2023-08-17T04:56:21;23.00;53.40
19248;DHT22;9758;48.640;8.148;2023-08-17T04:58:47;23.00;53.40
19248;DHT22;9758;48.640;8.148;2023-08-17T05:01:14;23.00;53.40
19248;DHT22;9758;48.640;8.148;2023-08-17T05:03:41;23.10;53.40
19248;DHT22;9758;48.640;8.148;2023-08-17T05:06:09;23.10;53.50
19248;DHT22;9758;48.640;8.148;2023-08-17T05:08:36;23.10;53.50
19248;DHT22;9758;48.640;8.148;2023-08-17T05:11:02;23.10;53.50
19248;DHT22;9758;48.640;8.148;2023-08-17T05:13:29;23.20;53.50
19248;DHT22;9758;48.640;8.148;2023-08-17T05:15:56;23.20;53.50
19248;DHT22;9758;48.640;8.148;2023-08-17T05:18:22;23.20;53.50
19248;DHT22;9758;48.640;8.148;2023-08-17T05:20:49;23.20;53.60
19248;DHT22;9758;48.640;8.148;2023-08-17T05:23:17;23.30;53.60
19248;DHT22;9758;48.640;8.148;2023-08-17T05:25:46;23.30;53.60
19248;DHT22;9758;48.640;8.148;2023-08-17T05:28:14;23.30;53.60
19248;DHT22;9758;48.640;8.148;2023-08-17T05:30:40;23.30;53.60
19248;DHT22;9758;48.640;8.148;2023-08-17T05:33:07;23.30;53.60
19248;DHT22;9758;48.640;8.148;2023-08-17T05:35:34;23.30;53.50
19248;DHT22;9758;48.640;8.148;2023-08-17T05:38:00;23.40;53.60
19248;DHT22;9758;48.640;8.148;2023-08-17T05:40:30;23.40;53.60
19248;DHT22;9758;48.640;8.148;2023-08-17T05:42:57;23.50;53.60
19248;DHT22;9758;48.640;8.148;2023-08-17T05:45:29;23.50;53.60
19248;DHT22;9758;48.640;8.148;2023-08-17T05:47:56;23.50;53.60
19248;DHT22;9758;48.640;8.148;2023-08-17T05:50:23;23.50;53.60
19248;DHT22;9758;48.640;8.148;2023-08-17T05:52:49;23.50;53.60
19248;DHT22;9758;48.640;8.148;2023-08-17T05:55:16;23.50;53.60
19248;DHT22;9758;48.640;8.148;2023-08-17T05:57:44;23.60;54.30
19248;DHT22;9758;48.640;8.148;2023-08-17T06:00:12;23.60;53.60
19248;DHT22;9758;48.640;8.148;2023-08-17T06:02:39;23.70;53.70
19248;DHT22;9758;48.640;8.148;2023-08-17T06:05:06;23.70;53.60
19248;DHT22;9758;48.640;8.148;2023-08-17T06:07:34;23.70;53.60
19248;DHT22;9758;48.640;8.148;2023-08-17T06:10:04;23.80;53.60
19248;DHT22;9758;48.640;8.148;2023-08-17T06:12:32;23.80;53.50
19248;DHT22;9758;48.640;8.148;2023-08-17T06:15:01;23.80;53.50
19248;DHT22;9758;48.640;8.148;2023-08-17T06:17:28;23.80;53.50
19248;DHT22;9758;48.640;8.148;2023-08-17T06:19:55;23.80;53.50
19248;DHT22;9758;48.640;8.148;2023-08-17T06:22:22;23.80;53.60
19248;DHT22;9758;48.640;8.148;2023-08-17T06:24:48;23.90;53.70
19248;DHT22;9758;48.640;8.148;2023-08-17T06:27:15;23.90;53.70
19248;DHT22;9758;48.640;8.148;2023-08-17T06:29:42;24.00;53.70
19248;DHT22;9758;48.640;8.148;2023-08-17T06:32:10;24.10;53.70
19248;DHT22;9758;48.640;8.148;2023-08-17T06:34:37;24.20;53.70
19248;DHT22;9758;48.640;8.148;2023-08-17T06:37:04;24.30;53.60
19248;DHT22;9758;48.640;8.148;2023-08-17T06:39:31;24.40;53.50
19248;DHT22;9758;48.640;8.148;2023-08-17T06:41:58;24.50;53.40
19248;DHT22;9758;48.640;8.148;2023-08-17T06:44:25;24.60;53.40
19248;DHT22;9758;48.640;8.148;2023-08-17T06:46:51;24.60;53.30
19248;DHT22;9758;48.640;8.148;2023-08-17T06:49:19;24.60;53.30
19248;DHT22;9758;48.640;8.148;2023-08-17T06:51:46;24.60;53.30
19248;DHT22;9758;48.640;8.148;2023-08-17T06:54:13;24.60;53.30
19248;DHT22;9758;48.640;8.148;2023-08-17T06:56:40;24.60;53.60
19248;DHT22;9758;48.640;8.148;2023-08-17T06:59:06;24.50;53.30
19248;DHT22;9758;48.640;8.148;2023-08-17T07:01:33;24.60;53.50
19248;DHT22;9758;48.640;8.148;2023-08-17T07:04:00;24.60;53.40
19248;DHT22;9758;48.640;8.148;2023-08-17T07:06:28;24.60;53.40
19248;DHT22;9758;48.640;8.148;2023-08-17T07:08:56;24.60;53.40
19248;DHT22;9758;48.640;8.148;2023-08-17T07:11:23;24.70;53.50
19248;DHT22;9758;48.640;8.148;2023-08-17T07:13:49;24.70;53.40
19248;DHT22;9758;48.640;8.148;2023-08-17T07:16:16;24.70;53.40
19248;DHT22;9758;48.640;8.148;2023-08-17T07:18:43;24.80;53.40
19248;DHT22;9758;48.640;8.148;2023-08-17T07:21:10;24.80;53.40
19248;DHT22;9758;48.640;8.148;2023-08-17T07:23:44;24.80;53.50
19248;DHT22;9758;48.640;8.148;2023-08-17T07:26:11;24.80;53.50
19248;DHT22;9758;48.640;8.148;2023-08-17T07:28:38;24.90;53.60
19248;DHT22;9758;48.640;8.148;2023-08-17T07:31:04;25.00;53.70
19248;DHT22;9758;48.640;8.148;2023-08-17T07:33:31;25.00;53.60
19248;DHT22;9758;48.640;8.148;2023-08-17T07:35:58;25.10;53.60
19248;DHT22;9758;48.640;8.148;2023-08-17T07:38:32;25.20;53.60
19248;DHT22;9758;48.640;8.148;2023-08-17T07:41:00;25.20;53.50
19248;DHT22;9758;48.640;8.148;2023-08-17T07:43:27;25.30;53.50
19248;DHT22;9758;48.640;8.148;2023-08-17T07:45:54;25.30;53.50
19248;DHT22;9758;48.640;8.148;2023-08-17T07:48:21;25.50;53.50
19248;DHT22;9758;48.640;8.148;2023-08-17T07:50:49;25.50;53.50
19248;DHT22;9758;48.640;8.148;2023-08-17T07:53:16;25.60;53.40
19248;DHT22;9758;48.640;8.148;2023-08-17T07:55:43;25.70;53.40
19248;DHT22;9758;48.640;8.148;2023-08-17T07:58:13;25.70;53.30
19248;DHT22;9758;48.640;8.148;2023-08-17T08:00:40;25.70;53.20
19248;DHT22;9758;48.640;8.148;2023-08-17T08:03:06;25.70;53.30
19248;DHT22;9758;48.640;8.148;2023-08-17T08:05:33;25.60;53.30
19248;DHT22;9758;48.640;8.148;2023-08-17T08:08:09;25.70;53.40
19248;DHT22;9758;48.640;8.148;2023-08-17T08:10:36;25.70;53.30
19248;DHT22;9758;48.640;8.148;2023-08-17T08:13:03;25.70;53.20
19248;DHT22;9758;48.640;8.148;2023-08-17T08:15:33;25.60;53.20
19248;DHT22;9758;48.640;8.148;2023-08-17T08:18:00;25.60;53.20
19248;DHT22;9758;48.640;8.148;2023-08-17T08:20:27;25.60;53.30
19248;DHT22;9758;48.640;8.148;2023-08-17T08:22:53;25.60;53.30
19248;DHT22;9758;48.640;8.148;2023-08-17T08:25:23;25.60;53.30
19248;DHT22;9758;48.640;8.148;2023-08-17T08:27:50;25.70;53.30
19248;DHT22;9758;48.640;8.148;2023-08-17T08:30:17;25.80;53.30
19248;DHT22;9758;48.640;8.148;2023-08-17T08:32:46;25.80;53.20
19248;DHT22;9758;48.640;8.148;2023-08-17T08:35:12;25.80;53.80
19248;DHT22;9758;48.640;8.148;2023-08-17T08:37:39;25.90;53.30
19248;DHT22;9758;48.640;8.148;2023-08-17T08:40:11;26.00;53.30
19248;DHT22;9758;48.640;8.148;2023-08-17T08:42:38;26.00;53.30
19248;DHT22;9758;48.640;8.148;2023-08-17T08:45:06;26.10;53.30
19248;DHT22;9758;48.640;8.148;2023-08-17T08:47:34;26.10;53.20
19248;DHT22;9758;48.640;8.148;2023-08-17T08:50:05;26.10;53.10
19248;DHT22;9758;48.640;8.148;2023-08-17T08:52:33;26.00;53.20
19248;DHT22;9758;48.640;8.148;2023-08-17T08:55:09;25.90;53.10
19248;DHT22;9758;48.640;8.148;2023-08-17T08:57:37;25.90;53.30
19248;DHT22;9758;48.640;8.148;2023-08-17T09:00:06;26.00;53.50
19248;DHT22;9758;48.640;8.148;2023-08-17T09:02:33;26.00;53.40
19248;DHT22;9758;48.640;8.148;2023-08-17T09:05:01;26.10;53.30
19248;DHT22;9758;48.640;8.148;2023-08-17T09:07:30;26.10;53.10
19248;DHT22;9758;48.640;8.148;2023-08-17T09:09:57;26.10;53.20
19248;DHT22;9758;48.640;8.148;2023-08-17T09:12:24;26.20;53.20
19248;DHT22;9758;48.640;8.148;2023-08-17T09:14:51;26.20;53.10
19248;DHT22;9758;48.640;8.148;2023-08-17T09:17:23;26.30;53.10
19248;DHT22;9758;48.640;8.148;2023-08-17T09:19:50;26.20;53.00
19248;DHT22;9758;48.640;8.148;2023-08-17T09:22:22;26.20;53.00
19248;DHT22;9758;48.640;8.148;2023-08-17T09:24:51;26.20;53.10
19248;DHT22;9758;48.640;8.148;2023-08-17T09:27:17;26.30;53.20
19248;DHT22;9758;48.640;8.148;2023-08-17T09:29:44;26.40;53.30
19248;DHT22;9758;48.640;8.148;2023-08-17T09:32:14;26.50;53.30
19248;DHT22;9758;48.640;8.148;2023-08-17T09:34:41;26.70;53.20
19248;DHT22;9758;48.640;8.148;2023-08-17T09:37:08;26.70;53.00
19248;DHT22;9758;48.640;8.148;2023-08-17T09:39:35;26.70;52.90
19248;DHT22;9758;48.640;8.148;2023-08-17T09:42:03;26.70;53.00
19248;DHT22;9758;48.640;8.148;2023-08-17T09:44:33;26.60;53.00
19248;DHT22;9758;48.640;8.148;2023-08-17T09:47:00;26.70;53.10
19248;DHT22;9758;48.640;8.148;2023-08-17T09:49:31;26.70;53.20
19248;DHT22;9758;48.640;8.148;2023-08-17T09:51:59;26.80;53.20
19248;DHT22;9758;48.640;8.148;2023-08-17T09:54:27;26.90;53.10
19248;DHT22;9758;48.640;8.148;2023-08-17T09:56:56;27.00;52.90
19248;DHT22;9758;48.640;8.148;2023-08-17T09:59:25;27.00;53.00
19248;DHT22;9758;48.640;8.148;2023-08-17T10:01:52;27.10;52.90
19248;DHT22;9758;48.640;8.148;2023-08-17T10:04:21;27.10;53.00
19248;DHT22;9758;48.640;8.148;2023-08-17T10:06:52;27.10;53.00
19248;DHT22;9758;48.640;8.148;2023-08-17T10:09:24;27.20;53.10
19248;DHT22;9758;48.640;8.148;2023-08-17T10:11:52;27.30;53.00
19248;DHT22;9758;48.640;8.148;2023-08-17T10:14:23;27.30;53.00
19248;DHT22;9758;48.640;8.148;2023-08-17T10:17:03;27.40;53.10
19248;DHT22;9758;48.640;8.148;2023-08-17T10:19:42;27.40;53.10
19248;DHT22;9758;48.640;8.148;2023-08-17T10:22:15;27.50;53.10
19248;DHT22;9758;48.640;8.148;2023-08-17T10:24:44;27.60;52.90
19248;DHT22;9758;48.640;8.148;2023-08-17T10:27:11;27.60;52.80
19248;DHT22;9758;48.640;8.148;2023-08-17T10:29:39;27.60;52.60
19248;DHT22;9758;48.640;8.148;2023-08-17T10:32:08;27.60;52.60
19248;DHT22;9758;48.640;8.148;2023-08-17T10:34:35;27.60;52.70
19248;DHT22;9758;48.640;8.148;2023-08-17T10:37:04;27.60;52.70
19248;DHT22;9758;48.640;8.148;2023-08-17T10:39:32;27.60;52.70
19248;DHT22;9758;48.640;8.148;2023-08-17T10:42:00;27.60;52.70
19248;DHT22;9758;48.640;8.148;2023-08-17T10:44:44;27.60;52.80
19248;DHT22;9758;48.640;8.148;2023-08-17T10:47:23;27.60;53.00
19248;DHT22;9758;48.640;8.148;2023-08-17T10:49:51;27.70;53.00
19248;DHT22;9758;48.640;8.148;2023-08-17T10:52:28;27.70;52.80
19248;DHT22;9758;48.640;8.148;2023-08-17T10:54:56;27.80;52.90
19248;DHT22;9758;48.640;8.148;2023-08-17T10:57:32;27.80;52.90
19248;DHT22;9758;48.640;8.148;2023-08-17T11:00:23;27.90;53.00
19248;DHT22;9758;48.640;8.148;2023-08-17T11:02:55;28.00;53.00
19248;DHT22;9758;48.640;8.148;2023-08-17T11:05:38;28.20;52.80
19248;DHT22;9758;48.640;8.148;2023-08-17T11:08:05;28.40;52.70
19248;DHT22;9758;48.640;8.148;2023-08-17T11:10:33;28.50;52.40
19248;DHT22;9758;48.640;8.148;2023-08-17T11:13:00;28.50;52.20
19248;DHT22;9758;48.640;8.148;2023-08-17T11:15:36;28.50;52.20
19248;DHT22;9758;48.640;8.148;2023-08-17T11:18:10;28.60;52.30
19248;DHT22;9758;48.640;8.148;2023-08-17T11:20:38;28.60;52.30
19248;DHT22;9758;48.640;8.148;2023-08-17T11:23:08;28.70;52.30
19248;DHT22;9758;48.640;8.148;2023-08-17T11:25:36;28.70;52.20
19248;DHT22;9758;48.640;8.148;2023-08-17T11:28:07;28.80;52.10
19248;DHT22;9758;48.640;8.148;2023-08-17T11:30:34;28.90;52.10
19248;DHT22;9758;48.640;8.148;2023-08-17T11:33:03;28.90;52.10
19248;DHT22;9758;48.640;8.148;2023-08-17T11:35:31;28.90;52.10
19248;DHT22;9758;48.640;8.148;2023-08-17T11:37:58;28.90;52.10
19248;DHT22;9758;48.640;8.148;2023-08-17T11:40:26;28.90;52.10
19248;DHT22;9758;48.640;8.148;2023-08-17T11:42:53;28.90;52.10
19248;DHT22;9758;48.640;8.148;2023-08-17T11:45:20;28.80;52.10
19248;DHT22;9758;48.640;8.148;2023-08-17T11:47:48;28.80;52.20
19248;DHT22;9758;48.640;8.148;2023-08-17T11:50:15;28.70;52.20
19248;DHT22;9758;48.640;8.148;2023-08-17T11:52:44;28.70;52.30
19248;DHT22;9758;48.640;8.148;2023-08-17T11:55:15;28.70;52.40
19248;DHT22;9758;48.640;8.148;2023-08-17T11:57:44;28.70;52.40
19248;DHT22;9758;48.640;8.148;2023-08-17T12:00:17;28.80;52.50
19248;DHT22;9758;48.640;8.148;2023-08-17T12:02:47;28.80;52.50
19248;DHT22;9758;48.640;8.148;2023-08-17T12:05:18;28.80;52.40
19248;DHT22;9758;48.640;8.148;2023-08-17T12:07:46;28.80;52.50
19248;DHT22;9758;48.640;8.148;2023-08-17T12:10:13;28.80;52.50
19248;DHT22;9758;48.640;8.148;2023-08-17T12:12:40;28.90;52.60
19248;DHT22;9758;48.640;8.148;2023-08-17T12:15:09;29.00;52.60
19248;DHT22;9758;48.640;8.148;2023-08-17T12:17:44;29.00;52.50
19248;DHT22;9758;48.640;8.148;2023-08-17T12:20:16;29.10;52.50
19248;DHT22;9758;48.640;8.148;2023-08-17T12:22:43;29.20;52.40
19248;DHT22;9758;48.640;8.148;2023-08-17T12:25:12;29.20;52.40
19248;DHT22;9758;48.640;8.148;2023-08-17T12:27:39;29.30;52.40
19248;DHT22;9758;48.640;8.148;2023-08-17T12:30:12;29.30;52.30
19248;DHT22;9758;48.640;8.148;2023-08-17T12:32:39;29.40;52.30
19248;DHT22;9758;48.640;8.148;2023-08-17T12:35:07;29.50;52.30
19248;DHT22;9758;48.640;8.148;2023-08-17T12:37:34;29.50;52.20
19248;DHT22;9758;48.640;8.148;2023-08-17T12:40:01;29.60;52.20
19248;DHT22;9758;48.640;8.148;2023-08-17T12:42:31;29.60;52.10
19248;DHT22;9758;48.640;8.148;2023-08-17T12:45:09;29.70;52.10
19248;DHT22;9758;48.640;8.148;2023-08-17T12:47:36;29.70;52.10
19248;DHT22;9758;48.640;8.148;2023-08-17T12:50:03;29.70;52.10
19248;DHT22;9758;48.640;8.148;2023-08-17T12:52:30;29.80;52.00
19248;DHT22;9758;48.640;8.148;2023-08-17T12:54:57;29.80;51.90
19248;DHT22;9758;48.640;8.148;2023-08-17T12:57:24;29.80;52.10
19248;DHT22;9758;48.640;8.148;2023-08-17T12:59:53;29.90;52.20
19248;DHT22;9758;48.640;8.148;2023-08-17T13:02:20;30.00;52.20
19248;DHT22;9758;48.640;8.148;2023-08-17T13:04:47;30.10;52.10
19248;DHT22;9758;48.640;8.148;2023-08-17T13:07:14;30.20;52.10
19248;DHT22;9758;48.640;8.148;2023-08-17T13:09:41;30.30;52.00
19248;DHT22;9758;48.640;8.148;2023-08-17T13:12:08;30.40;51.90
19248;DHT22;9758;48.640;8.148;2023-08-17T13:14:35;30.60;52.00
19248;DHT22;9758;48.640;8.148;2023-08-17T13:17:04;30.70;51.90
19248;DHT22;9758;48.640;8.148;2023-08-17T13:19:30;30.80;51.80
19248;DHT22;9758;48.640;8.148;2023-08-17T13:21:58;30.90;51.70
19248;DHT22;9758;48.640;8.148;2023-08-17T13:24:24;31.10;51.60
19248;DHT22;9758;48.640;8.148;2023-08-17T13:26:51;31.10;51.60
19248;DHT22;9758;48.640;8.148;2023-08-17T13:29:19;31.20;51.60
19248;DHT22;9758;48.640;8.148;2023-08-17T13:31:47;31.20;51.40
19248;DHT22;9758;48.640;8.148;2023-08-17T13:34:15;31.30;51.50
19248;DHT22;9758;48.640;8.148;2023-08-17T13:36:42;31.40;51.60
19248;DHT22;9758;48.640;8.148;2023-08-17T13:39:09;31.50;51.50
19248;DHT22;9758;48.640;8.148;2023-08-17T13:41:36;31.70;51.60
19248;DHT22;9758;48.640;8.148;2023-08-17T13:44:03;31.80;51.30
19248;DHT22;9758;48.640;8.148;2023-08-17T13:46:30;32.00;51.20
19248;DHT22;9758;48.640;8.148;2023-08-17T13:48:57;32.00;50.90
19248;DHT22;9758;48.640;8.148;2023-08-17T13:51:25;32.00;51.00
19248;DHT22;9758;48.640;8.148;2023-08-17T13:53:55;32.10;51.10
19248;DHT22;9758;48.640;8.148;2023-08-17T13:56:22;32.10;51.00
19248;DHT22;9758;48.640;8.148;2023-08-17T13:58:49;32.20;50.80
19248;DHT22;9758;48.640;8.148;2023-08-17T14:01:16;32.20;50.80
19248;DHT22;9758;48.640;8.148;2023-08-17T14:03:43;32.20;50.80
19248;DHT22;9758;48.640;8.148;2023-08-17T14:06:10;32.30;50.80
19248;DHT22;9758;48.640;8.148;2023-08-17T14:08:39;32.20;50.70
19248;DHT22;9758;48.640;8.148;2023-08-17T14:11:06;32.30;50.90
19248;DHT22;9758;48.640;8.148;2023-08-17T14:13:33;32.30;50.50
19248;DHT22;9758;48.640;8.148;2023-08-17T14:16:02;32.30;51.20
19248;DHT22;9758;48.640;8.148;2023-08-17T14:18:28;32.30;50.60
19248;DHT22;9758;48.640;8.148;2023-08-17T14:20:55;32.30;50.50
19248;DHT22;9758;48.640;8.148;2023-08-17T14:23:22;32.40;50.70
19248;DHT22;9758;48.640;8.148;2023-08-17T14:25:50;32.50;50.80
19248;DHT22;9758;48.640;8.148;2023-08-17T14:28:18;32.60;50.70
19248;DHT22;9758;48.640;8.148;2023-08-17T14:30:45;32.80;50.60
19248;DHT22;9758;48.640;8.148;2023-08-17T14:33:12;32.90;50.30
19248;DHT22;9758;48.640;8.148;2023-08-17T14:35:40;33.00;50.30
19248;DHT22;9758;48.640;8.148;2023-08-17T14:38:06;33.00;50.20
19248;DHT22;9758;48.640;8.148;2023-08-17T14:40:35;33.10;50.10
19248;DHT22;9758;48.640;8.148;2023-08-17T14:43:03;33.10;49.90
19248;DHT22;9758;48.640;8.148;2023-08-17T14:45:30;33.10;49.80
19248;DHT22;9758;48.640;8.148;2023-08-17T14:47:57;33.00;49.70
19248;DHT22;9758;48.640;8.148;2023-08-17T14:50:24;32.90;49.80
19248;DHT22;9758;48.640;8.148;2023-08-17T14:52:51;32.90;49.80
19248;DHT22;9758;48.640;8.148;2023-08-17T14:55:18;32.80;49.90
19248;DHT22;9758;48.640;8.148;2023-08-17T14:57:45;32.70;49.80
19248;DHT22;9758;48.640;8.148;2023-08-17T15:00:14;32.60;50.10
19248;DHT22;9758;48.640;8.148;2023-08-17T15:02:41;32.70;50.10
19248;DHT22;9758;48.640;8.148;2023-08-17T15:05:08;32.60;50.00
19248;DHT22;9758;48.640;8.148;2023-08-17T15:07:35;32.60;50.10
19248;DHT22;9758;48.640;8.148;2023-08-17T15:10:01;32.60;50.00
19248;DHT22;9758;48.640;8.148;2023-08-17T15:12:28;32.60;49.90
19248;DHT22;9758;48.640;8.148;2023-08-17T15:14:55;32.50;49.90
19248;DHT22;9758;48.640;8.148;2023-08-17T15:17:23;32.40;50.00
19248;DHT22;9758;48.640;8.148;2023-08-17T15:19:50;32.30;50.00
19248;DHT22;9758;48.640;8.148;2023-08-17T15:22:17;32.30;50.00
19248;DHT22;9758;48.640;8.148;2023-08-17T15:24:44;32.20;50.20
19248;DHT22;9758;48.640;8.148;2023-08-17T15:27:11;32.30;51.00
19248;DHT22;9758;48.640;8.148;2023-08-17T15:29:44;32.70;51.90
19248;DHT22;9758;48.640;8.148;2023-08-17T15:32:11;33.50;52.30
19248;DHT22;9758;48.640;8.148;2023-08-17T15:34:39;34.50;52.20
19248;DHT22;9758;48.640;8.148;2023-08-17T15:37:07;35.70;51.70
19248;DHT22;9758;48.640;8.148;2023-08-17T15:39:33;36.90;50.70
19248;DHT22;9758;48.640;8.148;2023-08-17T15:42:00;37.80;49.00
19248;DHT22;9758;48.640;8.148;2023-08-17T15:44:27;38.20;47.90
19248;DHT22;9758;48.640;8.148;2023-08-17T15:46:55;38.60;48.10
19248;DHT22;9758;48.640;8.148;2023-08-17T15:49:23;39.10;48.00